Time;durP1;ratioP1;P1;durP2;ratioP2;P2;SDS_P1;SDS_P2;PMS_P1;PMS_P2;Temp;Humidity;BMP_temperature;BMP_pressure;BME280_temperature;BME280_humidity;BME280_pressure;Samples;Min_cycle;Max_cycle;Signal;HPM_P1;HPM_P2
2023/08/11 00:00:29;;;;;;;7.20;4.80;;;;;;;17.17;63.55;99690.34;107218;1257;71752;-38
2023/08/11 00:02:56;;;;;;;5.70;4.60;;;;;;;17.16;63.52;99693.86;107329;1260;60131;-38
2023/08/11 00:05:24;;;;;;;8.80;4.70;;;;;;;17.10;63.64;99696.63;107250;1256;60402;-38
2023/08/11 00:07:54;;;;;;;9.10;4.70;;;;;;;17.04;63.80;99693.66;107260;1257;73883;-38
2023/08/11 00:10:23;;;;;;;5.70;4.80;;;;;;;16.98;63.92;99690.85;107278;1260;67885;-38
2023/08/11 00:12:51;;;;;;;8.80;4.80;;;;;;;16.90;64.02;99687.65;107334;1260;72634;-38
2023/08/11 00:15:19;;;;;;;7.90;5.00;;;;;;;16.84;64.26;99686.41;107246;1260;60426;-38
2023/08/11 00:17:47;;;;;;;5.20;4.70;;;;;;;16.78;64.36;99686.95;107291;1257;60294;-39
2023/08/11 00:20:15;;;;;;;6.90;4.80;;;;;;;16.75;64.61;99684.38;107351;1256;73876;-38
2023/08/11 00:22:43;;;;;;;6.30;4.50;;;;;;;16.77;64.58;99682.27;107251;1257;67897;-38
2023/08/11 00:25:10;;;;;;;8.30;5.10;;;;;;;16.81;64.65;99678.90;107235;1257;71545;-39
2023/08/11 00:27:38;;;;;;;8.30;5.30;;;;;;;16.81;64.85;99674.04;107247;1257;60498;-38
2023/08/11 00:30:06;;;;;;;10.50;5.40;;;;;;;16.81;65.00;99674.90;107347;1256;60429;-38
2023/08/11 00:32:34;;;;;;;9.20;5.00;;;;;;;16.81;64.91;99676.63;107317;1257;74351;-38
2023/08/11 00:35:02;;;;;;;9.30;5.40;;;;;;;16.83;64.78;99680.70;107278;1257;66766;-38
2023/08/11 00:37:30;;;;;;;8.20;5.70;;;;;;;16.82;64.58;99677.09;107222;1262;72644;-38
2023/08/11 00:39:58;;;;;;;9.00;5.40;;;;;;;16.80;64.60;99673.73;107239;1258;60374;-39
2023/08/11 00:42:25;;;;;;;7.50;5.10;;;;;;;16.77;64.51;99672.64;107279;1256;60290;-39
2023/08/11 00:44:53;;;;;;;7.20;5.50;;;;;;;16.73;64.50;99675.63;107078;1258;73898;-38
2023/08/11 00:47:21;;;;;;;6.80;4.60;;;;;;;16.74;64.53;99676.02;107255;1257;67191;-38
2023/08/11 00:49:49;;;;;;;6.30;4.80;;;;;;;16.75;64.43;99668.11;107182;1257;71426;-38
2023/08/11 00:52:17;;;;;;;7.60;5.20;;;;;;;16.70;64.48;99665.06;107223;1257;60487;-38
2023/08/11 00:54:45;;;;;;;6.60;5.00;;;;;;;16.64;64.68;99661.48;107288;1257;60431;-38
2023/08/11 00:57:14;;;;;;;8.40;4.90;;;;;;;16.61;64.82;99657.95;107277;1256;73897;-38
2023/08/11 00:59:42;;;;;;;10.00;5.10;;;;;;;16.56;64.98;99656.13;107289;1257;66769;-38
2023/08/11 01:02:11;;;;;;;7.30;4.80;;;;;;;16.49;64.94;99651.75;107208;1256;71832;-38
2023/08/11 01:04:40;;;;;;;7.50;5.00;;;;;;;16.39;65.17;99652.30;107169;1257;60317;-38
2023/08/11 01:07:23;;;;;;;7.40;4.90;;;;;;;16.33;65.48;99651.82;107252;1257;60351;-39
2023/08/11 01:10:03;;;;;;;7.90;5.00;;;;;;;16.34;65.64;99650.12;107253;1257;72559;-38
2023/08/11 01:12:42;;;;;;;6.90;5.20;;;;;;;16.37;65.70;99647.05;107272;1260;66613;-38
2023/08/11 01:15:15;;;;;;;8.40;5.70;;;;;;;16.37;65.94;99644.55;107230;1260;72676;-38
2023/08/11 01:17:42;;;;;;;7.60;5.40;;;;;;;16.36;65.88;99643.02;107182;1256;60476;-39
2023/08/11 01:20:11;;;;;;;7.80;5.60;;;;;;;16.34;65.86;99642.92;107194;1256;60053;-39
2023/08/11 01:22:41;;;;;;;7.40;5.40;;;;;;;16.33;65.82;99636.35;107299;1257;72688;-38
2023/08/11 01:25:08;;;;;;;9.90;6.00;;;;;;;16.32;65.84;99636.42;107282;1256;67564;-38
2023/08/11 01:27:36;;;;;;;10.80;5.90;;;;;;;16.31;65.65;99634.48;107122;1257;72958;-39
2023/08/11 01:30:06;;;;;;;8.50;5.30;;;;;;;16.31;65.55;99631.68;107368;1256;60345;-39
2023/08/11 01:32:33;;;;;;;9.70;5.40;;;;;;;16.32;65.65;99628.45;107416;1257;61117;-39
2023/08/11 01:35:01;;;;;;;8.30;5.20;;;;;;;16.29;65.75;99623.54;107406;1258;73884;-39
2023/08/11 01:37:31;;;;;;;;;;;;;;;16.23;65.69;99628.54;107265;1258;66616;-39
2023/08/11 01:39:59;;;;;;;7.90;5.30;;;;;;;16.16;65.73;99628.84;107278;1260;72669;-39
2023/08/11 01:42:26;;;;;;;8.00;5.40;;;;;;;16.08;65.78;99625.56;107399;1256;59339;-39
2023/08/11 01:44:57;;;;;;;7.70;5.20;;;;;;;16.01;65.85;99628.44;107201;1257;60308;-39
2023/08/11 01:47:25;;;;;;;8.50;5.50;;;;;;;15.94;65.94;99627.50;107380;1256;73796;-39
2023/08/11 01:49:52;;;;;;;8.10;5.00;;;;;;;15.91;66.01;99632.50;107445;1257;66300;-39
2023/08/11 01:52:20;;;;;;;7.00;5.20;;;;;;;15.90;66.09;99627.58;107428;1256;72679;-39
2023/08/11 01:54:48;;;;;;;8.20;5.30;;;;;;;15.84;66.35;99626.30;107186;1256;60490;-39
2023/08/11 01:57:15;;;;;;;7.30;5.40;;;;;;;15.78;66.49;99621.92;107385;1256;59260;-39
2023/08/11 01:59:43;;;;;;;6.70;5.10;;;;;;;15.71;66.66;99619.17;107006;1257;72999;-39
2023/08/11 02:02:10;;;;;;;7.70;5.40;;;;;;;15.65;66.94;99617.13;107221;1256;66435;-39
2023/08/11 02:04:38;;;;;;;6.60;4.60;;;;;;;15.60;67.08;99616.02;107399;1256;71534;-39
2023/08/11 02:07:06;;;;;;;7.10;5.30;;;;;;;15.61;67.17;99615.70;107365;1255;61665;-39
2023/08/11 02:09:36;;;;;;;7.80;4.60;;;;;;;15.66;67.22;99610.17;107273;1256;60789;-39
2023/08/11 02:12:04;;;;;;;7.10;5.00;;;;;;;15.64;67.31;99606.19;107235;1256;73863;-39
2023/08/11 02:14:32;;;;;;;8.40;4.70;;;;;;;15.62;67.39;99606.50;107447;1257;66426;-39
2023/08/11 02:16:59;;;;;;;6.00;5.20;;;;;;;15.61;67.46;99604.77;107480;1259;71394;-39
2023/08/11 02:19:27;;;;;;;7.40;5.10;;;;;;;15.59;67.45;99603.52;107173;1256;60279;-39
2023/08/11 02:21:55;;;;;;;6.80;5.10;;;;;;;15.55;67.42;99600.48;107432;1256;60268;-38
2023/08/11 02:24:23;;;;;;;6.70;4.60;;;;;;;15.52;67.54;99596.95;107387;1256;73835;-39
2023/08/11 02:26:51;;;;;;;7.60;4.60;;;;;;;15.51;67.70;99598.02;107413;1256;66774;-39
2023/08/11 02:29:18;;;;;;;7.50;5.20;;;;;;;15.52;67.68;99595.86;107435;1256;72657;-39
2023/08/11 02:31:47;;;;;;;7.20;4.50;;;;;;;15.52;67.63;99595.55;107433;1256;60431;-39
2023/08/11 02:34:15;;;;;;;6.40;5.10;;;;;;;15.53;67.75;99597.66;107385;1257;60285;-39
2023/08/11 02:36:42;;;;;;;7.00;4.80;;;;;;;15.52;67.71;99600.94;107190;1262;73868;-38
2023/08/11 02:39:10;;;;;;;6.70;4.80;;;;;;;15.50;67.74;99597.77;107381;1256;68111;-38
2023/08/11 02:41:37;;;;;;;7.50;4.80;;;;;;;15.53;67.69;99596.09;107406;1257;72671;-38
2023/08/11 02:44:05;;;;;;;6.10;4.50;;;;;;;15.57;67.53;99598.61;107390;1256;60328;-38
2023/08/11 02:46:32;;;;;;;7.00;4.70;;;;;;;15.56;67.54;99594.77;107380;1257;60242;-38
2023/08/11 02:49:00;;;;;;;6.70;4.80;;;;;;;15.55;67.58;99591.02;107394;1255;72559;-38
2023/08/11 02:51:28;;;;;;;5.70;4.80;;;;;;;15.54;67.61;99595.08;107404;1256;67608;-38
2023/08/11 02:53:56;;;;;;;9.80;4.90;;;;;;;15.54;67.61;99592.59;107375;1256;72760;-38
2023/08/11 02:56:23;;;;;;;6.60;4.70;;;;;;;15.53;67.48;99593.30;107370;1256;60170;-38
2023/08/11 02:58:52;;;;;;;7.60;4.30;;;;;;;15.50;67.49;99594.66;107208;1256;218985;-38
2023/08/11 03:02:56;;;;;;;6.50;4.50;;;;;;;15.57;67.42;99596.27;104198;1293;613477;-38
2023/08/11 03:05:23;;;;;;;9.90;4.50;;;;;;;15.58;67.35;99597.52;106752;1264;59205;-39
2023/08/11 03:07:52;;;;;;;8.70;5.00;;;;;;;15.56;67.18;99594.46;106726;1264;60143;-38
2023/08/11 03:10:19;;;;;;;8.20;4.80;;;;;;;15.51;67.31;99592.80;106798;1264;72301;-39
2023/08/11 03:12:47;;;;;;;8.80;4.70;;;;;;;15.48;67.34;99588.95;106718;1263;68166;-38
2023/08/11 03:15:14;;;;;;;5.80;4.40;;;;;;;15.49;67.37;99586.05;106552;1264;168195;-38
2023/08/11 03:17:41;;;;;;;7.00;4.70;;;;;;;15.52;67.48;99587.19;106854;1271;60291;-38
2023/08/11 03:20:12;;;;;;;6.80;4.70;;;;;;;15.50;67.46;99586.70;106762;1264;60386;-38
2023/08/11 03:22:41;;;;;;;7.80;4.70;;;;;;;15.43;67.57;99584.02;106796;1264;73248;-38
2023/08/11 03:25:09;;;;;;;6.30;4.80;;;;;;;15.39;67.73;99584.39;106911;1266;67703;-38
2023/08/11 03:27:35;;;;;;;7.00;4.70;;;;;;;15.36;67.94;99582.59;106963;1264;72713;-38
2023/08/11 03:30:03;;;;;;;6.50;4.60;;;;;;;15.37;68.01;99578.45;106949;1266;62036;-38
2023/08/11 03:32:31;;;;;;;6.70;4.20;;;;;;;15.43;67.72;99576.60;106997;1264;60015;-39
2023/08/11 03:34:58;;;;;;;9.10;4.90;;;;;;;15.50;67.67;99578.73;106964;1264;72905;-38
2023/08/11 03:37:25;;;;;;;6.90;4.70;;;;;;;15.52;67.67;99580.87;107016;1263;68883;-38
2023/08/11 03:39:52;;;;;;;6.30;4.60;;;;;;;15.53;67.80;99579.55;106961;1264;73687;-38
2023/08/11 03:42:19;;;;;;;7.40;4.90;;;;;;;15.55;68.00;99579.23;106949;1264;60340;-38
2023/08/11 03:44:47;;;;;;;7.40;4.70;;;;;;;15.59;67.94;99582.91;106948;1262;60335;-39
2023/08/11 03:47:15;;;;;;;7.90;4.70;;;;;;;15.60;67.73;99582.61;106952;1264;73559;-39
2023/08/11 03:49:42;;;;;;;8.30;4.80;;;;;;;15.68;67.72;99582.85;107005;1266;67780;-39
2023/08/11 03:52:09;;;;;;;6.70;4.20;;;;;;;15.76;67.53;99585.36;106843;1264;72146;-39
2023/08/11 03:54:38;;;;;;;7.40;4.60;;;;;;;15.81;67.67;99584.36;106947;1264;60256;-38
2023/08/11 03:57:14;;;;;;;7.80;4.80;;;;;;;15.83;67.68;99588.49;107215;1260;60356;-38
2023/08/11 03:59:41;;;;;;;6.80;4.90;;;;;;;15.85;67.65;99590.06;107205;1260;73530;-38
2023/08/11 04:02:08;;;;;;;8.60;4.70;;;;;;;15.87;67.53;99593.81;107194;1261;68025;-39
2023/08/11 04:04:37;;;;;;;5.90;4.70;;;;;;;15.87;67.66;99598.42;107200;1260;73323;-39
2023/08/11 04:07:05;;;;;;;8.20;4.60;;;;;;;15.95;67.82;99598.36;107206;1262;60556;-39
2023/08/11 04:09:34;;;;;;;7.80;4.20;;;;;;;16.05;67.68;99597.19;107263;1260;60008;-38
2023/08/11 04:12:01;;;;;;;6.10;4.30;;;;;;;16.08;67.66;99593.21;107246;1259;73442;-38
2023/08/11 04:14:27;;;;;;;8.60;4.60;;;;;;;16.11;67.57;99594.30;107052;1260;67848;-39
2023/08/11 04:16:54;;;;;;;8.70;4.60;;;;;;;16.17;67.41;99599.86;107129;1260;73218;-39
2023/08/11 04:19:21;;;;;;;7.60;4.70;;;;;;;16.20;67.47;99597.35;107064;1260;59349;-38
2023/08/11 04:21:48;;;;;;;7.50;4.70;;;;;;;16.23;67.55;99591.02;106988;1261;60016;-39
2023/08/11 04:24:17;;;;;;;4.90;3.90;;;;;;;16.27;67.51;99594.38;107128;1263;73148;-39
2023/08/11 04:26:45;;;;;;;6.90;4.10;;;;;;;16.35;67.36;99597.03;107156;1261;66500;-39
2023/08/11 04:29:12;;;;;;;6.20;3.80;;;;;;;16.42;67.39;99602.02;107033;1259;73285;-39
2023/08/11 04:31:40;;;;;;;6.90;4.30;;;;;;;16.43;67.27;99600.70;107021;1261;59736;-38
2023/08/11 04:34:07;;;;;;;8.70;4.70;;;;;;;16.42;67.35;99600.92;107140;1260;60054;-38
2023/08/11 04:36:33;;;;;;;5.80;4.20;;;;;;;16.42;67.60;99599.29;107108;1259;73637;-39
2023/08/11 04:39:00;;;;;;;7.60;4.80;;;;;;;16.44;67.43;99599.69;107135;1260;68145;-39
2023/08/11 04:41:27;;;;;;;9.70;4.20;;;;;;;16.46;67.35;99599.91;107422;1257;73274;-39
2023/08/11 04:43:54;;;;;;;5.60;3.90;;;;;;;16.52;67.10;99597.64;107383;1255;61950;-39
2023/08/11 04:46:21;;;;;;;6.20;4.40;;;;;;;16.61;66.96;99602.51;107223;1255;60060;-39
2023/08/11 04:48:49;;;;;;;5.90;4.10;;;;;;;16.63;66.75;99600.31;107124;1257;72962;-39
2023/08/11 04:51:17;;;;;;;6.90;4.30;;;;;;;16.63;66.61;99604.85;107473;1259;67921;-39
2023/08/11 04:53:43;;;;;;;6.10;4.20;;;;;;;16.65;66.67;99609.46;107462;1257;73309;-39
2023/08/11 04:56:10;;;;;;;5.50;4.10;;;;;;;16.69;67.03;99616.09;107428;1257;60105;-39
2023/08/11 04:58:38;;;;;;;5.90;3.90;;;;;;;16.80;67.47;99617.10;107213;1257;59384;-39
2023/08/11 05:01:05;;;;;;;5.40;4.20;;;;;;;16.95;67.42;99609.16;107236;1256;73667;-39
2023/08/11 05:03:32;;;;;;;8.20;4.00;;;;;;;17.09;67.31;99601.67;107340;1258;68499;-38
2023/08/11 05:05:59;;;;;;;7.30;4.20;;;;;;;17.18;67.06;99604.21;107393;1257;71466;-39
2023/08/11 05:08:25;;;;;;;5.90;4.60;;;;;;;17.25;66.88;99609.05;107312;1259;60409;-39
2023/08/11 05:10:54;;;;;;;5.90;4.30;;;;;;;17.32;66.56;99607.45;107298;1257;60134;-39
2023/08/11 05:13:21;;;;;;;5.10;3.60;;;;;;;17.40;66.33;99602.09;107296;1257;73432;-39
2023/08/11 05:15:47;;;;;;;8.40;4.20;;;;;;;17.46;65.88;99606.77;107286;1257;67888;-39
2023/08/11 05:18:14;;;;;;;5.30;3.80;;;;;;;17.51;65.52;99605.48;107296;1257;72951;-39
2023/08/11 05:20:41;;;;;;;7.50;4.40;;;;;;;17.60;65.17;99611.80;107263;1257;61099;-39
2023/08/11 05:23:08;;;;;;;5.60;4.10;;;;;;;17.67;65.01;99608.71;107317;1256;60474;-39
2023/08/11 05:25:34;;;;;;;6.40;4.30;;;;;;;17.71;65.02;99609.64;107336;1257;73508;-39
2023/08/11 05:28:01;;;;;;;6.30;4.30;;;;;;;17.76;64.95;99609.05;107290;1257;67970;-39
2023/08/11 05:30:28;;;;;;;8.20;3.90;;;;;;;17.86;64.95;99607.58;107271;1257;73284;-39
2023/08/11 05:32:56;;;;;;;6.70;4.60;;;;;;;17.96;64.75;99604.06;107324;1257;60710;-39
2023/08/11 05:35:24;;;;;;;10.10;4.00;;;;;;;18.04;64.66;99602.82;107297;1257;60129;-39
2023/08/11 05:37:51;;;;;;;6.70;4.40;;;;;;;18.14;64.75;99602.20;107320;1260;73566;-38
2023/08/11 05:40:19;;;;;;;7.60;4.00;;;;;;;18.27;64.44;99606.01;107285;1260;68063;-39
2023/08/11 05:42:45;;;;;;;5.10;3.60;;;;;;;18.39;63.97;99603.33;107270;1257;71576;-39
2023/08/11 05:45:12;;;;;;;7.00;4.20;;;;;;;18.47;63.84;99596.03;107317;1257;60407;-39
2023/08/11 05:47:42;;;;;;;7.30;4.20;;;;;;;18.55;63.46;99589.33;107351;1256;59573;-39
2023/08/11 05:50:09;;;;;;;5.40;4.20;;;;;;;18.61;63.09;99582.27;107302;1257;73752;-39
2023/08/11 05:52:35;;;;;;;6.50;4.50;;;;;;;18.65;62.66;99588.02;107296;1257;68076;-39
2023/08/11 05:55:03;;;;;;;6.40;4.60;;;;;;;18.68;62.35;99590.92;107308;1257;73265;-39
2023/08/11 05:57:30;;;;;;;8.30;4.90;;;;;;;18.70;62.74;99594.19;107297;1257;60068;-39
2023/08/11 05:59:57;;;;;;;8.70;5.20;;;;;;;18.76;62.83;99592.39;107321;1257;60344;-39
2023/08/11 06:02:24;;;;;;;7.00;3.90;;;;;;;18.82;62.84;99587.23;107392;1260;73082;-40
2023/08/11 06:04:51;;;;;;;6.50;3.90;;;;;;;18.96;62.51;99590.45;107390;1257;67819;-39
2023/08/11 06:07:18;;;;;;;6.00;4.00;;;;;;;19.10;61.76;99594.92;107370;1257;72376;-39
2023/08/11 06:09:44;;;;;;;5.30;3.90;;;;;;;19.19;61.50;99598.27;107365;1257;60244;-39
2023/08/11 06:12:11;;;;;;;7.80;4.60;;;;;;;19.27;61.74;99594.01;107322;1257;60314;-39
2023/08/11 06:14:38;;;;;;;8.70;4.50;;;;;;;19.37;61.70;99590.73;107442;1256;71942;-39
2023/08/11 06:17:05;;;;;;;8.80;4.80;;;;;;;19.45;61.64;99594.96;107351;1257;68524;-39
2023/08/11 06:19:32;;;;;;;6.20;4.00;;;;;;;19.51;61.38;99594.13;107322;1256;73167;-39
2023/08/11 06:21:58;;;;;;;5.30;4.20;;;;;;;19.56;61.06;99593.49;107324;1257;60519;-39
2023/08/11 06:24:25;;;;;;;5.40;4.10;;;;;;;19.59;61.00;99588.58;107362;1257;59755;-40
2023/08/11 06:26:52;;;;;;;9.50;4.70;;;;;;;19.65;60.86;99590.46;107368;1260;72516;-40
2023/08/11 06:29:19;;;;;;;7.00;4.50;;;;;;;19.75;60.92;99588.43;107329;1257;68016;-40
2023/08/11 06:31:46;;;;;;;9.90;3.90;;;;;;;19.86;60.65;99587.33;107343;1260;72598;-40
2023/08/11 06:34:17;;;;;;;4.80;3.40;;;;;;;20.02;60.45;99583.77;107333;1257;61674;-40
2023/08/11 06:36:45;;;;;;;4.70;3.60;;;;;;;20.18;59.96;99585.33;107352;1257;60312;-40
2023/08/11 06:39:12;;;;;;;5.40;4.00;;;;;;;20.29;59.74;99583.41;107350;1257;73583;-39
2023/08/11 06:41:39;;;;;;;6.40;3.30;;;;;;;20.41;59.61;99584.33;107350;1257;68151;-40
2023/08/11 06:44:06;;;;;;;9.10;3.70;;;;;;;20.54;58.91;99575.60;107348;1257;72974;-39
2023/08/11 06:46:34;;;;;;;8.40;3.90;;;;;;;20.65;58.33;99576.95;107361;1257;60441;-40
2023/08/11 06:49:01;;;;;;;5.90;3.90;;;;;;;20.76;57.45;99573.30;107380;1256;59603;-40
2023/08/11 06:51:28;;;;;;;11.90;3.90;;;;;;;20.87;57.60;99576.01;107704;1254;71897;-40
2023/08/11 06:53:55;;;;;;;9.10;3.90;;;;;;;20.96;57.51;99575.59;107705;1253;68287;-40
2023/08/11 06:56:21;;;;;;;9.80;3.70;;;;;;;21.04;56.91;99574.41;107677;1253;73067;-40
2023/08/11 06:58:48;;;;;;;8.20;4.10;;;;;;;21.10;56.89;99573.57;107715;1254;60402;-40
2023/08/11 07:01:17;;;;;;;7.20;3.60;;;;;;;21.14;56.43;99564.94;107749;1253;60034;-40
2023/08/11 07:03:44;;;;;;;9.90;3.80;;;;;;;21.16;56.13;99569.85;107690;1251;73177;-40
2023/08/11 07:06:11;;;;;;;17.90;3.90;;;;;;;21.13;56.37;99559.45;107746;1251;66366;-40
2023/08/11 07:08:39;;;;;;;7.60;4.00;;;;;;;21.16;56.58;99565.14;107645;1251;73081;-40
2023/08/11 07:11:06;;;;;;;4.70;3.80;;;;;;;21.21;56.68;99561.80;107737;1251;60405;-40
2023/08/11 07:13:32;;;;;;;6.60;3.40;;;;;;;21.31;56.71;99561.75;107647;1252;60400;-40
2023/08/11 07:16:00;;;;;;;9.90;3.70;;;;;;;21.44;56.53;99559.34;107710;1251;73799;-40
2023/08/11 07:18:27;;;;;;;22.50;4.20;;;;;;;21.55;56.60;99558.45;107688;1251;67097;-40
2023/08/11 07:20:54;;;;;;;7.40;3.40;;;;;;;21.71;55.57;99558.31;107714;1251;72737;-40
2023/08/11 07:23:24;;;;;;;5.00;3.30;;;;;;;21.88;55.05;99556.27;107695;1251;60518;-40
2023/08/11 07:25:52;;;;;;;3.40;3.10;;;;;;;22.03;54.95;99555.69;107678;1251;60302;-40
2023/08/11 07:28:18;;;;;;;5.00;3.00;;;;;;;22.19;54.50;99559.89;107676;1251;74473;-41
2023/08/11 07:30:45;;;;;;;8.50;6.60;;;;;;;22.31;54.15;99560.42;107776;1251;67997;-40
2023/08/11 07:33:12;;;;;;;4.50;3.00;;;;;;;22.45;52.78;99560.79;107719;1251;71272;-40
2023/08/11 07:35:39;;;;;;;4.50;3.30;;;;;;;22.58;52.07;99560.93;107744;1250;60651;-40
2023/08/11 07:38:06;;;;;;;6.50;3.20;;;;;;;22.70;51.28;99561.55;107681;1251;60556;-40
2023/08/11 07:40:35;;;;;;;4.10;2.80;;;;;;;22.75;51.10;99562.13;107716;1252;74283;-40
2023/08/11 07:43:02;;;;;;;4.80;3.10;;;;;;;22.76;51.44;99559.80;107747;1251;68185;-40
2023/08/11 07:45:30;;;;;;;4.60;3.00;;;;;;;22.78;50.99;99564.73;107727;1251;72521;-40
2023/08/11 07:47:57;;;;;;;5.20;2.70;;;;;;;22.81;50.62;99559.52;107703;1251;60372;-40
2023/08/11 07:50:24;;;;;;;16.20;3.70;;;;;;;22.86;50.38;99565.32;107753;1251;60414;-38
2023/08/11 07:52:51;;;;;;;5.40;2.90;;;;;;;22.91;50.28;99566.58;107689;1251;74367;-39
2023/08/11 07:55:18;;;;;;;7.10;2.50;;;;;;;23.00;50.37;99562.79;107659;1251;68007;-39
2023/08/11 07:57:45;;;;;;;5.40;2.50;;;;;;;23.09;49.85;99565.94;107713;1251;72229;-39
2023/08/11 08:00:16;;;;;;;4.60;2.50;;;;;;;23.18;49.13;99565.52;107727;1256;60367;-39
2023/08/11 08:02:44;;;;;;;6.20;2.50;;;;;;;23.25;48.96;99567.76;107705;1251;60521;-39
2023/08/11 08:05:11;;;;;;;5.10;2.50;;;;;;;23.29;48.25;99570.80;107700;1251;73640;-39
2023/08/11 08:07:40;;;;;;;5.60;2.60;;;;;;;23.31;47.81;99573.10;107718;1251;67737;-39
2023/08/11 08:10:08;;;;;;;14.40;4.60;;;;;;;23.32;48.68;99578.13;107670;1251;73040;-39
2023/08/11 08:12:39;;;;;;;4.20;2.80;;;;;;;23.36;49.19;99581.26;107759;1251;60498;-40
2023/08/11 08:15:06;;;;;;;;;;;;;;;23.44;49.13;99584.04;107725;1251;60398;-39
2023/08/11 08:17:33;;;;;;;6.80;2.90;;;;;;;23.50;48.27;99581.27;107715;1251;72623;-40
2023/08/11 08:20:00;;;;;;;4.50;3.40;;;;;;;23.55;48.35;99580.86;107728;1251;67779;-39
2023/08/11 08:22:27;;;;;;;4.90;2.90;;;;;;;23.64;48.70;99579.41;107684;1251;73222;-39
2023/08/11 08:24:54;;;;;;;9.90;3.90;;;;;;;23.74;48.20;99573.30;107710;1251;60517;-40
2023/08/11 08:27:24;;;;;;;4.40;3.10;;;;;;;23.86;48.54;99573.48;107688;1251;60489;-40
2023/08/11 08:29:53;;;;;;;;;;;;;;;24.05;47.66;99574.85;107726;1251;73330;-40
2023/08/11 08:32:20;;;;;;;3.90;2.50;;;;;;;24.18;47.15;99572.86;107734;1251;68013;-40
2023/08/11 08:34:48;;;;;;;5.50;2.40;;;;;;;24.33;47.09;99574.83;107655;1251;72577;-40
2023/08/11 08:37:19;;;;;;;7.60;2.70;;;;;;;24.48;46.44;99574.80;107668;1251;60656;-40
2023/08/11 08:39:46;;;;;;;6.00;3.00;;;;;;;24.63;46.94;99576.40;107715;1251;60748;-40
2023/08/11 08:42:14;;;;;;;5.60;2.90;;;;;;;24.79;46.94;99576.39;107786;1251;73754;-39
2023/08/11 08:44:42;;;;;;;4.20;3.10;;;;;;;24.93;46.17;99577.77;107681;1251;66185;-39
2023/08/11 08:47:12;;;;;;;4.40;2.80;;;;;;;25.01;45.90;99578.70;107695;1251;73018;-39
2023/08/11 08:49:39;;;;;;;;;;;;;;;25.09;45.73;99577.16;107683;1251;60349;-39
2023/08/11 08:52:06;;;;;;;3.50;2.90;;;;;;;25.16;46.10;99578.32;107654;1251;60475;-40
2023/08/11 08:54:33;;;;;;;4.00;2.40;;;;;;;25.27;45.89;99578.32;107724;1251;74212;-40
2023/08/11 08:57:03;;;;;;;2.70;2.20;;;;;;;25.32;45.45;99575.42;107722;1251;66355;-40
2023/08/11 08:59:30;;;;;;;3.80;2.60;;;;;;;25.33;45.12;99579.98;107656;1254;73209;-40
2023/08/11 09:01:58;;;;;;;4.60;2.80;;;;;;;25.33;45.07;99576.19;107664;1251;60575;-40
2023/08/11 09:04:25;;;;;;;4.40;2.40;;;;;;;25.32;45.03;99574.23;107694;1251;60350;-40
2023/08/11 09:06:55;;;;;;;3.30;2.30;;;;;;;25.28;45.26;99574.92;107538;1252;73583;-40
2023/08/11 09:09:23;;;;;;;3.80;2.40;;;;;;;25.28;45.08;99570.25;107677;1253;68002;-40
2023/08/11 09:11:50;;;;;;;5.00;2.50;;;;;;;25.33;45.39;99568.34;107760;1251;72500;-40
2023/08/11 09:14:19;;;;;;;3.60;2.30;;;;;;;25.38;45.29;99568.30;107707;1251;60403;-40
2023/08/11 09:16:45;;;;;;;4.30;2.50;;;;;;;25.48;44.98;99564.98;107660;1251;60104;-41
2023/08/11 09:19:13;;;;;;;7.60;2.50;;;;;;;25.65;44.43;99560.38;107673;1251;74302;-40
2023/08/11 09:21:43;;;;;;;4.20;2.30;;;;;;;25.84;44.46;99557.27;107677;1251;67987;-40
2023/08/11 09:24:11;;;;;;;4.20;2.40;;;;;;;26.05;43.52;99553.98;107658;1255;72315;-40
2023/08/11 09:26:44;;;;;;;5.00;2.30;;;;;;;26.26;43.27;99552.60;107732;1251;61052;-40
2023/08/11 09:29:11;;;;;;;4.30;2.00;;;;;;;26.45;43.48;99550.61;107745;1251;60416;-40
2023/08/11 09:31:41;;;;;;;4.60;2.30;;;;;;;26.58;41.56;99552.25;107782;1251;71672;-40
2023/08/11 09:34:15;;;;;;;;;;;;;;;26.62;41.66;99553.92;107731;1251;68042;-40
2023/08/11 09:36:42;;;;;;;3.20;2.10;;;;;;;26.58;41.37;99555.93;107700;1251;73199;-40
2023/08/11 09:39:10;;;;;;;3.80;1.80;;;;;;;26.54;41.62;99545.70;107765;1251;60421;-40
2023/08/11 09:41:45;;;;;;;2.70;1.90;;;;;;;26.54;41.65;99543.29;107765;1251;60322;-40
2023/08/11 09:44:15;;;;;;;2.70;2.00;;;;;;;26.58;41.55;99540.50;107703;1251;72844;-40
2023/08/11 09:46:42;;;;;;;3.10;1.90;;;;;;;26.58;41.57;99538.80;107725;1251;67704;-40
2023/08/11 09:49:10;;;;;;;4.20;2.00;;;;;;;26.55;42.20;99538.23;107695;1251;73501;-40
2023/08/11 09:51:37;;;;;;;3.50;2.00;;;;;;;26.49;42.13;99533.59;107786;1251;60408;-40
2023/08/11 09:54:06;;;;;;;3.00;2.00;;;;;;;26.49;42.45;99537.89;107765;1251;60538;-40
2023/08/11 09:56:37;;;;;;;3.20;2.20;;;;;;;26.60;42.33;99533.25;107718;1251;72621;-40
2023/08/11 09:59:08;;;;;;;3.50;2.10;;;;;;;26.80;42.42;99524.04;107714;1251;68251;-40
2023/08/11 10:01:35;;;;;;;4.60;1.90;;;;;;;26.98;41.94;99522.11;107721;1251;72131;-40
2023/08/11 10:04:07;;;;;;;3.60;2.20;;;;;;;27.14;42.05;99516.35;107770;1251;60382;-40
2023/08/11 10:06:36;;;;;;;3.30;2.10;;;;;;;27.26;40.67;99521.07;107778;1251;60336;-41
2023/08/11 10:09:03;;;;;;;3.70;2.20;;;;;;;27.19;40.59;99517.11;107717;1251;72587;-40
2023/08/11 10:11:32;;;;;;;3.80;2.00;;;;;;;27.13;40.96;99505.37;107714;1251;67728;-40
2023/08/11 10:13:59;;;;;;;4.80;2.00;;;;;;;27.22;41.10;99500.23;107729;1251;72549;-40
2023/08/11 10:16:26;;;;;;;5.90;2.00;;;;;;;27.38;40.36;99500.61;107607;1251;60261;-40
2023/08/11 10:18:56;;;;;;;3.40;1.90;;;;;;;27.47;40.34;99504.70;107915;1255;60277;-40
2023/08/11 10:21:25;;;;;;;3.90;1.90;;;;;;;27.56;40.18;99501.13;107702;1251;72581;-41
2023/08/11 10:23:53;;;;;;;3.20;2.00;;;;;;;27.66;40.57;99499.17;107559;1251;67634;-41
2023/08/11 10:26:20;;;;;;;3.00;1.70;;;;;;;27.86;39.43;99497.84;107700;1256;71660;-40
2023/08/11 10:28:47;;;;;;;3.00;1.70;;;;;;;28.09;38.93;99489.82;107638;1251;60430;-41
2023/08/11 10:31:14;;;;;;;2.10;1.70;;;;;;;28.34;38.91;99494.77;107698;1251;60743;-40
2023/08/11 10:33:47;;;;;;;3.20;1.80;;;;;;;28.59;38.40;99498.08;107729;1251;73852;-40
2023/08/11 10:36:15;;;;;;;4.70;1.90;;;;;;;28.72;37.65;99493.88;107678;1251;68104;-40
2023/08/11 10:38:43;;;;;;;5.30;1.80;;;;;;;28.77;37.06;99496.21;107640;1251;73050;-41
2023/08/11 10:41:10;;;;;;;3.70;2.00;;;;;;;28.84;37.04;99498.98;107701;1251;60517;-40
2023/08/11 10:43:40;;;;;;;2.90;1.90;;;;;;;29.02;37.01;99496.28;107666;1251;60478;-40
2023/08/11 10:46:45;;;;;;;;;;;;;;;29.24;36.55;99502.90;107671;1251;73873;-40
2023/08/11 10:49:14;;;;;;;3.10;1.80;;;;;;;29.39;35.86;99509.91;107062;1260;67698;-40
2023/08/11 10:51:41;;;;;;;3.80;1.90;;;;;;;29.46;35.85;99502.46;107018;1259;72300;-40
2023/08/11 10:54:11;;;;;;;3.00;1.90;;;;;;;29.62;35.68;99494.16;107310;1254;60756;-40
2023/08/11 10:56:39;;;;;;;3.70;1.70;;;;;;;29.74;35.32;99494.95;107743;1256;60425;-40
2023/08/11 10:59:06;;;;;;;2.50;1.80;;;;;;;29.84;34.84;99499.19;107665;1251;74276;-40
2023/08/11 11:01:35;;;;;;;3.80;1.80;;;;;;;29.77;34.69;99500.11;107706;1251;67813;-40
2023/08/11 11:04:03;;;;;;;4.50;2.10;;;;;;;29.67;34.30;99498.00;107672;1251;72312;-40
2023/08/11 11:06:30;;;;;;;6.20;1.80;;;;;;;29.67;34.17;99488.34;107606;1253;60440;-41
2023/08/11 11:08:57;;;;;;;2.90;1.80;;;;;;;29.79;33.80;99498.56;107638;1251;60419;-40
2023/08/11 11:11:24;;;;;;;3.20;1.70;;;;;;;29.93;33.75;99491.24;107701;1251;74826;-40
2023/08/11 11:13:51;;;;;;;4.50;2.10;;;;;;;30.18;34.07;99492.00;107689;1251;68011;-40
2023/08/11 11:16:19;;;;;;;2.20;1.60;;;;;;;30.35;34.15;99488.42;107617;1251;72508;-40
2023/08/11 11:18:47;;;;;;;4.00;1.90;;;;;;;30.36;33.64;99481.52;107618;1251;60609;-40
2023/08/11 11:21:14;;;;;;;2.00;1.60;;;;;;;30.34;33.57;99478.44;107758;1251;60639;-40
2023/08/11 11:23:45;;;;;;;9.30;2.70;;;;;;;30.46;33.91;99475.01;107596;1251;73313;-40
2023/08/11 11:26:20;;;;;;;7.10;2.60;;;;;;;30.79;33.21;99470.89;107660;1251;67616;-40
2023/08/11 11:28:47;;;;;;;3.60;2.00;;;;;;;31.19;32.62;99475.23;107689;1251;72477;-40
2023/08/11 11:31:15;;;;;;;20.80;6.40;;;;;;;31.46;32.29;99474.30;107703;1256;60574;-40